sensor_id;sensor_type;location;lat;lon;timestamp;pressure;altitude;pressure_sealevel;temperature;humidity
64053;BME280;50299;49.524;8.536;2023-04-23T00:00:07;99860.88;;;9.80;80.89
64053;BME280;50299;49.524;8.536;2023-04-23T00:02:38;99863.91;;;9.87;86.17
64053;BME280;50299;49.524;8.536;2023-04-23T00:05:05;99857.97;;;9.76;87.10
64053;BME280;50299;49.524;8.536;2023-04-23T00:07:33;99859.16;;;9.67;83.57
64053;BME280;50299;49.524;8.536;2023-04-23T00:10:00;99854.25;;;9.51;84.16
64053;BME280;50299;49.524;8.536;2023-04-23T00:12:29;99857.00;;;9.72;87.79
64053;BME280;50299;49.524;8.536;2023-04-23T00:14:56;99859.94;;;9.76;87.08
64053;BME280;50299;49.524;8.536;2023-04-23T00:17:22;99861.66;;;9.80;88.34
64053;BME280;50299;49.524;8.536;2023-04-23T00:19:49;99863.34;;;9.73;84.76
64053;BME280;50299;49.524;8.536;2023-04-23T00:22:17;99851.88;;;9.62;83.68
64053;BME280;50299;49.524;8.536;2023-04-23T00:24:45;99856.88;;;9.69;86.21
64053;BME280;50299;49.524;8.536;2023-04-23T00:27:12;99857.22;;;9.67;83.23
64053;BME280;50299;49.524;8.536;2023-04-23T00:29:38;99863.34;;;9.52;85.33
64053;BME280;50299;49.524;8.536;2023-04-23T00:32:05;99858.91;;;9.59;87.68
64053;BME280;50299;49.524;8.536;2023-04-23T00:34:33;99855.66;;;9.57;84.80
64053;BME280;50299;49.524;8.536;2023-04-23T00:36:59;99868.91;;;9.64;86.67
64053;BME280;50299;49.524;8.536;2023-04-23T00:39:26;99868.44;;;9.41;85.85
64053;BME280;50299;49.524;8.536;2023-04-23T00:41:52;99869.84;;;9.47;91.84
64053;BME280;50299;49.524;8.536;2023-04-23T00:44:18;99871.59;;;9.52;92.36
64053;BME280;50299;49.524;8.536;2023-04-23T00:46:45;99870.22;;;9.67;90.82
64053;BME280;50299;49.524;8.536;2023-04-23T00:49:14;99872.44;;;9.73;86.77
64053;BME280;50299;49.524;8.536;2023-04-23T00:51:41;99862.34;;;9.77;91.00
64053;BME280;50299;49.524;8.536;2023-04-23T00:54:07;99864.56;;;9.84;87.11
64053;BME280;50299;49.524;8.536;2023-04-23T00:56:34;99876.56;;;9.88;88.62
64053;BME280;50299;49.524;8.536;2023-04-23T00:59:01;99868.63;;;9.99;89.19
64053;BME280;50299;49.524;8.536;2023-04-23T01:01:28;99869.84;;;10.10;88.63
64053;BME280;50299;49.524;8.536;2023-04-23T01:03:55;99870.56;;;10.19;90.57
64053;BME280;50299;49.524;8.536;2023-04-23T01:06:23;99859.97;;;10.21;88.64
64053;BME280;50299;49.524;8.536;2023-04-23T01:08:50;99861.38;;;10.27;88.26
64053;BME280;50299;49.524;8.536;2023-04-23T01:11:16;99874.66;;;10.46;90.71
64053;BME280;50299;49.524;8.536;2023-04-23T01:13:43;99867.66;;;10.49;86.64
64053;BME280;50299;49.524;8.536;2023-04-23T01:16:10;99873.38;;;10.44;88.79
64053;BME280;50299;49.524;8.536;2023-04-23T01:18:36;99871.63;;;10.27;87.07
64053;BME280;50299;49.524;8.536;2023-04-23T01:21:03;99870.00;;;10.26;84.67
64053;BME280;50299;49.524;8.536;2023-04-23T01:23:30;99869.88;;;10.22;87.25
64053;BME280;50299;49.524;8.536;2023-04-23T01:25:57;99879.91;;;10.27;87.85
64053;BME280;50299;49.524;8.536;2023-04-23T01:28:24;99869.88;;;10.22;87.50
64053;BME280;50299;49.524;8.536;2023-04-23T01:30:51;99880.72;;;10.27;85.68
64053;BME280;50299;49.524;8.536;2023-04-23T01:33:18;99883.06;;;10.38;88.81
64053;BME280;50299;49.524;8.536;2023-04-23T01:35:47;99881.53;;;10.40;86.42
64053;BME280;50299;49.524;8.536;2023-04-23T01:38:15;99882.81;;;10.43;87.14
64053;BME280;50299;49.524;8.536;2023-04-23T01:40:45;99875.25;;;10.52;90.01
64053;BME280;50299;49.524;8.536;2023-04-23T01:43:12;99884.34;;;10.52;88.50
64053;BME280;50299;49.524;8.536;2023-04-23T01:45:40;99884.41;;;10.31;83.74
64053;BME280;50299;49.524;8.536;2023-04-23T01:48:06;99883.72;;;10.34;85.23
64053;BME280;50299;49.524;8.536;2023-04-23T01:50:33;99878.06;;;10.31;85.34
64053;BME280;50299;49.524;8.536;2023-04-23T01:53:02;99888.53;;;10.25;85.27
64053;BME280;50299;49.524;8.536;2023-04-23T01:55:29;99886.19;;;10.15;82.93
64053;BME280;50299;49.524;8.536;2023-04-23T01:57:56;99887.00;;;10.16;85.84
64053;BME280;50299;49.524;8.536;2023-04-23T02:00:35;99882.41;;;10.20;86.21
64053;BME280;50299;49.524;8.536;2023-04-23T02:03:02;99885.38;;;10.15;86.63
64053;BME280;50299;49.524;8.536;2023-04-23T02:05:29;99889.56;;;10.21;85.85
64053;BME280;50299;49.524;8.536;2023-04-23T02:07:57;99889.69;;;10.24;84.13
64053;BME280;50299;49.524;8.536;2023-04-23T02:10:24;99899.47;;;10.22;84.72
64053;BME280;50299;49.524;8.536;2023-04-23T02:12:51;99904.97;;;10.22;86.12
64053;BME280;50299;49.524;8.536;2023-04-23T02:15:17;99906.59;;;10.23;85.87
64053;BME280;50299;49.524;8.536;2023-04-23T02:17:45;99899.22;;;9.94;84.40
64053;BME280;50299;49.524;8.536;2023-04-23T02:20:11;99903.06;;;9.80;82.90
64053;BME280;50299;49.524;8.536;2023-04-23T02:22:40;99899.72;;;9.96;87.45
64053;BME280;50299;49.524;8.536;2023-04-23T02:25:07;99903.06;;;9.80;83.20
64053;BME280;50299;49.524;8.536;2023-04-23T02:27:35;99908.16;;;9.70;87.37
64053;BME280;50299;49.524;8.536;2023-04-23T02:30:02;99899.38;;;9.76;86.89
64053;BME280;50299;49.524;8.536;2023-04-23T02:32:30;99903.75;;;9.77;85.67
64053;BME280;50299;49.524;8.536;2023-04-23T02:34:56;99906.78;;;9.84;85.77
64053;BME280;50299;49.524;8.536;2023-04-23T02:37:24;99900.72;;;9.91;84.94
64053;BME280;50299;49.524;8.536;2023-04-23T02:39:52;99905.75;;;9.89;83.93
64053;BME280;50299;49.524;8.536;2023-04-23T02:42:18;99899.88;;;9.91;85.05
64053;BME280;50299;49.524;8.536;2023-04-23T02:44:44;99904.97;;;9.89;86.22
64053;BME280;50299;49.524;8.536;2023-04-23T02:47:11;99901.03;;;9.90;85.66
64053;BME280;50299;49.524;8.536;2023-04-23T02:49:37;99895.88;;;9.88;84.04
64053;BME280;50299;49.524;8.536;2023-04-23T02:52:04;99895.72;;;10.05;86.51
64053;BME280;50299;49.524;8.536;2023-04-23T02:54:31;99906.53;;;10.10;81.69
64053;BME280;50299;49.524;8.536;2023-04-23T02:57:03;99890.38;;;10.21;86.02
64053;BME280;50299;49.524;8.536;2023-04-23T02:59:29;99902.75;;;10.15;84.56
64053;BME280;50299;49.524;8.536;2023-04-23T03:01:56;99890.63;;;10.28;88.54
64053;BME280;50299;49.524;8.536;2023-04-23T03:04:22;99889.38;;;10.38;84.10
64053;BME280;50299;49.524;8.536;2023-04-23T03:06:49;99878.22;;;10.47;86.43
64053;BME280;50299;49.524;8.536;2023-04-23T03:09:16;99894.59;;;10.52;83.33
64053;BME280;50299;49.524;8.536;2023-04-23T03:11:42;99885.38;;;10.48;82.98
64053;BME280;50299;49.524;8.536;2023-04-23T03:14:09;99888.31;;;10.30;83.03
64053;BME280;50299;49.524;8.536;2023-04-23T03:16:35;99892.66;;;10.19;84.39
64053;BME280;50299;49.524;8.536;2023-04-23T03:19:02;99887.16;;;10.31;84.37
64053;BME280;50299;49.524;8.536;2023-04-23T03:21:28;99891.91;;;10.43;83.74
64053;BME280;50299;49.524;8.536;2023-04-23T03:23:55;99888.59;;;10.50;83.83
64053;BME280;50299;49.524;8.536;2023-04-23T03:26:22;99895.28;;;10.49;82.49
64053;BME280;50299;49.524;8.536;2023-04-23T03:28:48;99892.06;;;10.59;82.31
64053;BME280;50299;49.524;8.536;2023-04-23T03:31:15;99896.41;;;10.48;79.75
64053;BME280;50299;49.524;8.536;2023-04-23T03:33:41;99902.88;;;10.19;78.08
64053;BME280;50299;49.524;8.536;2023-04-23T03:36:08;99905.53;;;10.15;79.28
64053;BME280;50299;49.524;8.536;2023-04-23T03:38:34;99906.94;;;10.21;80.97
64053;BME280;50299;49.524;8.536;2023-04-23T03:41:01;99914.97;;;10.14;79.81
64053;BME280;50299;49.524;8.536;2023-04-23T03:43:27;99909.38;;;10.02;79.32
64053;BME280;50299;49.524;8.536;2023-04-23T03:45:54;99906.84;;;9.97;79.47
64053;BME280;50299;49.524;8.536;2023-04-23T03:48:20;99903.41;;;10.00;79.33
64053;BME280;50299;49.524;8.536;2023-04-23T03:50:47;99898.75;;;10.13;80.46
64053;BME280;50299;49.524;8.536;2023-04-23T03:53:14;99908.84;;;10.08;78.29
64053;BME280;50299;49.524;8.536;2023-04-23T03:55:40;99905.56;;;9.94;79.25
64053;BME280;50299;49.524;8.536;2023-04-23T03:58:06;99902.72;;;10.03;80.43
64053;BME280;50299;49.524;8.536;2023-04-23T04:00:34;99906.16;;;10.00;82.25
64053;BME280;50299;49.524;8.536;2023-04-23T04:03:01;99901.09;;;10.02;82.44
64053;BME280;50299;49.524;8.536;2023-04-23T04:05:28;99912.00;;;9.98;80.26
64053;BME280;50299;49.524;8.536;2023-04-23T04:07:54;99901.06;;;10.23;82.82
64053;BME280;50299;49.524;8.536;2023-04-23T04:10:21;99910.31;;;10.39;80.27
64053;BME280;50299;49.524;8.536;2023-04-23T04:12:47;99909.78;;;10.46;77.74
64053;BME280;50299;49.524;8.536;2023-04-23T04:15:14;99916.56;;;10.48;80.96
64053;BME280;50299;49.524;8.536;2023-04-23T04:17:42;99931.84;;;10.33;77.63
64053;BME280;50299;49.524;8.536;2023-04-23T04:20:11;99928.94;;;10.30;77.35
64053;BME280;50299;49.524;8.536;2023-04-23T04:22:37;99927.47;;;10.11;78.09
64053;BME280;50299;49.524;8.536;2023-04-23T04:25:05;99938.88;;;10.10;76.12
64053;BME280;50299;49.524;8.536;2023-04-23T04:27:35;99928.84;;;10.05;78.59
64053;BME280;50299;49.524;8.536;2023-04-23T04:30:06;99924.25;;;10.09;79.51
64053;BME280;50299;49.524;8.536;2023-04-23T04:32:32;99923.69;;;10.04;79.76
64053;BME280;50299;49.524;8.536;2023-04-23T04:35:02;99924.53;;;10.17;80.19
64053;BME280;50299;49.524;8.536;2023-04-23T04:37:29;99918.66;;;10.18;78.62
64053;BME280;50299;49.524;8.536;2023-04-23T04:39:57;99919.81;;;10.17;80.51
64053;BME280;50299;49.524;8.536;2023-04-23T04:42:28;99922.72;;;10.21;79.34
64053;BME280;50299;49.524;8.536;2023-04-23T04:44:55;99926.59;;;10.41;81.35
64053;BME280;50299;49.524;8.536;2023-04-23T04:47:27;99927.63;;;10.48;80.50
64053;BME280;50299;49.524;8.536;2023-04-23T04:49:59;99924.78;;;10.57;81.53
64053;BME280;50299;49.524;8.536;2023-04-23T04:52:26;99922.13;;;10.60;79.42
64053;BME280;50299;49.524;8.536;2023-04-23T04:54:53;99925.25;;;10.59;78.77
64053;BME280;50299;49.524;8.536;2023-04-23T04:57:19;99931.13;;;10.57;79.32
64053;BME280;50299;49.524;8.536;2023-04-23T04:59:48;99928.59;;;10.65;80.28
64053;BME280;50299;49.524;8.536;2023-04-23T05:02:16;99926.41;;;10.70;79.06
64053;BME280;50299;49.524;8.536;2023-04-23T05:04:44;99923.06;;;10.65;77.20
64053;BME280;50299;49.524;8.536;2023-04-23T05:07:14;99924.63;;;10.74;79.74
64053;BME280;50299;49.524;8.536;2023-04-23T05:09:40;99935.44;;;10.79;78.59
64053;BME280;50299;49.524;8.536;2023-04-23T05:12:10;99927.59;;;10.81;77.43
64053;BME280;50299;49.524;8.536;2023-04-23T05:14:42;99940.06;;;10.88;79.65
64053;BME280;50299;49.524;8.536;2023-04-23T05:17:12;99937.88;;;10.93;80.07
64053;BME280;50299;49.524;8.536;2023-04-23T05:19:41;99937.75;;;10.90;79.53
64053;BME280;50299;49.524;8.536;2023-04-23T05:22:09;99940.75;;;10.97;79.86
64053;BME280;50299;49.524;8.536;2023-04-23T05:24:37;99936.28;;;10.92;77.64
64053;BME280;50299;49.524;8.536;2023-04-23T05:27:06;99933.41;;;11.01;79.36
64053;BME280;50299;49.524;8.536;2023-04-23T05:29:33;99929.47;;;11.02;78.27
64053;BME280;50299;49.524;8.536;2023-04-23T05:32:03;99934.31;;;11.05;79.40
64053;BME280;50299;49.524;8.536;2023-04-23T05:34:29;99935.84;;;11.15;80.19
64053;BME280;50299;49.524;8.536;2023-04-23T05:36:58;99936.97;;;11.14;77.10
64053;BME280;50299;49.524;8.536;2023-04-23T05:39:25;99929.47;;;11.14;78.07
64053;BME280;50299;49.524;8.536;2023-04-23T05:41:52;99934.09;;;11.22;78.94
64053;BME280;50299;49.524;8.536;2023-04-23T05:44:18;99930.88;;;11.20;76.42
64053;BME280;50299;49.524;8.536;2023-04-23T05:46:45;99934.31;;;11.17;75.86
64053;BME280;50299;49.524;8.536;2023-04-23T05:49:11;99934.44;;;11.21;78.15
64053;BME280;50299;49.524;8.536;2023-04-23T05:51:39;99931.19;;;11.31;78.18
64053;BME280;50299;49.524;8.536;2023-04-23T05:54:06;99924.53;;;11.32;76.56
64053;BME280;50299;49.524;8.536;2023-04-23T05:56:32;99930.88;;;11.32;77.06
64053;BME280;50299;49.524;8.536;2023-04-23T05:59:00;99935.94;;;11.30;74.71
64053;BME280;50299;49.524;8.536;2023-04-23T06:01:30;99929.47;;;11.26;75.06
64053;BME280;50299;49.524;8.536;2023-04-23T06:03:59;99932.94;;;11.35;78.69
64053;BME280;50299;49.524;8.536;2023-04-23T06:06:26;99938.69;;;11.43;77.83
64053;BME280;50299;49.524;8.536;2023-04-23T06:08:53;99936.41;;;11.32;77.38
64053;BME280;50299;49.524;8.536;2023-04-23T06:11:23;99939.06;;;11.29;78.28
64053;BME280;50299;49.524;8.536;2023-04-23T06:13:54;99939.06;;;11.29;79.68
64053;BME280;50299;49.524;8.536;2023-04-23T06:16:22;99928.34;;;11.27;78.92
64053;BME280;50299;49.524;8.536;2023-04-23T06:18:52;99940.66;;;11.30;79.40
64053;BME280;50299;49.524;8.536;2023-04-23T06:21:22;99947.22;;;11.13;76.33
64053;BME280;50299;49.524;8.536;2023-04-23T06:23:49;99946.88;;;11.39;80.52
64053;BME280;50299;49.524;8.536;2023-04-23T06:26:16;99937.44;;;11.52;79.17
64053;BME280;50299;49.524;8.536;2023-04-23T06:28:44;99939.16;;;11.57;81.57
64053;BME280;50299;49.524;8.536;2023-04-23T06:31:11;99929.78;;;11.62;77.45
64053;BME280;50299;49.524;8.536;2023-04-23T06:33:38;99927.03;;;11.62;78.85
64053;BME280;50299;49.524;8.536;2023-04-23T06:36:06;99928.41;;;11.55;78.39
64053;BME280;50299;49.524;8.536;2023-04-23T06:38:37;99926.47;;;11.56;77.63
64053;BME280;50299;49.524;8.536;2023-04-23T06:41:04;99914.00;;;11.62;79.69
64053;BME280;50299;49.524;8.536;2023-04-23T06:43:33;99917.81;;;11.70;79.24
64053;BME280;50299;49.524;8.536;2023-04-23T06:45:59;99909.63;;;11.73;79.94
64053;BME280;50299;49.524;8.536;2023-04-23T06:48:29;99904.53;;;11.63;79.93
64053;BME280;50299;49.524;8.536;2023-04-23T06:51:05;99913.31;;;11.77;81.46
64053;BME280;50299;49.524;8.536;2023-04-23T06:53:33;99918.03;;;11.77;78.62
64053;BME280;50299;49.524;8.536;2023-04-23T06:56:02;99918.38;;;11.75;77.73
64053;BME280;50299;49.524;8.536;2023-04-23T06:58:29;99925.50;;;11.89;79.11
64053;BME280;50299;49.524;8.536;2023-04-23T07:01:00;99915.38;;;12.08;80.25
64053;BME280;50299;49.524;8.536;2023-04-23T07:03:27;99919.75;;;12.38;79.23
64053;BME280;50299;49.524;8.536;2023-04-23T07:05:56;99915.94;;;12.58;82.50
64053;BME280;50299;49.524;8.536;2023-04-23T07:08:26;99913.84;;;12.67;76.96
64053;BME280;50299;49.524;8.536;2023-04-23T07:11:09;99909.00;;;12.64;78.96
64053;BME280;50299;49.524;8.536;2023-04-23T07:13:36;99902.75;;;12.67;80.58
64053;BME280;50299;49.524;8.536;2023-04-23T07:16:06;99908.03;;;12.72;79.35
64053;BME280;50299;49.524;8.536;2023-04-23T07:18:37;99909.84;;;12.52;76.92
64053;BME280;50299;49.524;8.536;2023-04-23T07:21:03;99906.44;;;12.71;79.98
64053;BME280;50299;49.524;8.536;2023-04-23T07:23:29;99911.25;;;12.74;70.96
64053;BME280;50299;49.524;8.536;2023-04-23T07:25:56;99901.94;;;12.82;78.84
64053;BME280;50299;49.524;8.536;2023-04-23T07:28:28;99893.28;;;12.84;80.83
64053;BME280;50299;49.524;8.536;2023-04-23T07:30:54;99895.41;;;12.75;80.96
64053;BME280;50299;49.524;8.536;2023-04-23T07:33:27;99890.22;;;13.05;80.35
64053;BME280;50299;49.524;8.536;2023-04-23T07:35:58;99894.06;;;13.16;77.97
64053;BME280;50299;49.524;8.536;2023-04-23T07:38:27;99883.47;;;13.38;78.52
64053;BME280;50299;49.524;8.536;2023-04-23T07:41:04;99884.91;;;13.31;80.03
64053;BME280;50299;49.524;8.536;2023-04-23T07:43:33;99884.69;;;13.40;74.50
64053;BME280;50299;49.524;8.536;2023-04-23T07:46:00;99901.00;;;13.42;69.70
64053;BME280;50299;49.524;8.536;2023-04-23T07:48:27;99892.69;;;13.26;74.65
64053;BME280;50299;49.524;8.536;2023-04-23T07:50:54;99887.78;;;13.19;67.55
64053;BME280;50299;49.524;8.536;2023-04-23T07:53:23;99886.38;;;13.10;67.69
64053;BME280;50299;49.524;8.536;2023-04-23T07:55:50;99880.31;;;12.88;73.31
64053;BME280;50299;49.524;8.536;2023-04-23T07:58:20;99887.06;;;13.22;79.35
64053;BME280;50299;49.524;8.536;2023-04-23T08:01:04;99883.78;;;13.52;74.68
64053;BME280;50299;49.524;8.536;2023-04-23T08:03:34;99882.72;;;13.76;66.80
64053;BME280;50299;49.524;8.536;2023-04-23T08:06:10;99889.75;;;13.89;63.38
64053;BME280;50299;49.524;8.536;2023-04-23T08:08:40;99877.63;;;13.97;76.51
64053;BME280;50299;49.524;8.536;2023-04-23T08:11:06;99876.81;;;14.16;77.65
64053;BME280;50299;49.524;8.536;2023-04-23T08:13:34;99876.88;;;14.00;73.14
64053;BME280;50299;49.524;8.536;2023-04-23T08:16:01;99878.09;;;14.22;76.26
64053;BME280;50299;49.524;8.536;2023-04-23T08:18:27;99880.31;;;14.33;76.84
64053;BME280;50299;49.524;8.536;2023-04-23T08:20:56;99869.59;;;14.54;74.94
64053;BME280;50299;49.524;8.536;2023-04-23T08:23:23;99876.38;;;14.34;72.96
64053;BME280;50299;49.524;8.536;2023-04-23T08:25:52;99877.88;;;14.50;74.95
64053;BME280;50299;49.524;8.536;2023-04-23T08:28:21;99863.72;;;14.17;73.51
64053;BME280;50299;49.524;8.536;2023-04-23T08:30:47;99868.31;;;14.09;74.72
64053;BME280;50299;49.524;8.536;2023-04-23T08:33:14;99862.91;;;14.16;72.36
64053;BME280;50299;49.524;8.536;2023-04-23T08:35:40;99864.25;;;13.84;66.19
64053;BME280;50299;49.524;8.536;2023-04-23T08:38:11;99858.75;;;13.87;70.16
64053;BME280;50299;49.524;8.536;2023-04-23T08:40:40;99849.91;;;14.01;73.61
64053;BME280;50299;49.524;8.536;2023-04-23T08:43:30;99842.91;;;14.30;78.84
64053;BME280;50299;49.524;8.536;2023-04-23T08:46:01;99850.34;;;14.68;76.46
64053;BME280;50299;49.524;8.536;2023-04-23T08:48:34;99842.25;;;14.83;73.85
64053;BME280;50299;49.524;8.536;2023-04-23T08:51:01;99846.56;;;14.80;68.71
64053;BME280;50299;49.524;8.536;2023-04-23T08:53:29;99838.69;;;14.82;73.74
64053;BME280;50299;49.524;8.536;2023-04-23T08:55:58;99844.44;;;14.96;70.23
64053;BME280;50299;49.524;8.536;2023-04-23T08:58:28;99841.41;;;15.05;74.55
64053;BME280;50299;49.524;8.536;2023-04-23T09:00:56;99850.75;;;15.16;69.34
64053;BME280;50299;49.524;8.536;2023-04-23T09:03:23;99844.22;;;15.32;63.00
64053;BME280;50299;49.524;8.536;2023-04-23T09:05:51;99841.09;;;15.37;64.34
64053;BME280;50299;49.524;8.536;2023-04-23T09:08:21;99841.84;;;15.34;62.98
64053;BME280;50299;49.524;8.536;2023-04-23T09:10:51;99850.81;;;15.20;58.04
64053;BME280;50299;49.524;8.536;2023-04-23T09:13:24;99837.22;;;14.92;68.13
64053;BME280;50299;49.524;8.536;2023-04-23T09:16:04;99840.47;;;14.94;65.84
64053;BME280;50299;49.524;8.536;2023-04-23T09:18:32;99833.22;;;15.42;69.01
64053;BME280;50299;49.524;8.536;2023-04-23T09:21:01;99830.41;;;15.69;73.04
64053;BME280;50299;49.524;8.536;2023-04-23T09:23:31;99826.34;;;15.93;69.86
64053;BME280;50299;49.524;8.536;2023-04-23T09:25:59;99828.03;;;16.01;62.70
64053;BME280;50299;49.524;8.536;2023-04-23T09:28:34;99828.22;;;15.85;64.18
64053;BME280;50299;49.524;8.536;2023-04-23T09:31:04;99821.03;;;16.18;71.12
64053;BME280;50299;49.524;8.536;2023-04-23T09:33:34;99811.78;;;15.76;60.71
64053;BME280;50299;49.524;8.536;2023-04-23T09:36:09;99814.56;;;15.46;64.90
64053;BME280;50299;49.524;8.536;2023-04-23T09:38:39;99805.72;;;15.67;66.24
64053;BME280;50299;49.524;8.536;2023-04-23T09:41:26;99810.03;;;15.08;65.65
64053;BME280;50299;49.524;8.536;2023-04-23T09:43:53;99799.25;;;15.60;63.04
64053;BME280;50299;49.524;8.536;2023-04-23T09:46:38;99806.06;;;15.66;66.11
64053;BME280;50299;49.524;8.536;2023-04-23T09:49:06;99801.56;;;15.24;53.28
64053;BME280;50299;49.524;8.536;2023-04-23T09:51:37;99790.72;;;14.92;54.91
64053;BME280;50299;49.524;8.536;2023-04-23T09:54:15;99796.28;;;14.92;62.15
64053;BME280;50299;49.524;8.536;2023-04-23T09:56:42;99794.50;;;15.34;66.58
64053;BME280;50299;49.524;8.536;2023-04-23T09:59:22;99794.66;;;15.44;62.52
64053;BME280;50299;49.524;8.536;2023-04-23T10:02:06;99788.28;;;15.44;64.85
64053;BME280;50299;49.524;8.536;2023-04-23T10:04:34;99788.78;;;15.19;50.78
64053;BME280;50299;49.524;8.536;2023-04-23T10:09:46;99782.59;;;15.07;64.42
64053;BME280;50299;49.524;8.536;2023-04-23T10:12:16;99784.06;;;15.23;66.86
64053;BME280;50299;49.524;8.536;2023-04-23T10:14:48;99773.13;;;15.71;62.25
64053;BME280;50299;49.524;8.536;2023-04-23T10:17:18;99771.00;;;15.61;62.80
64053;BME280;50299;49.524;8.536;2023-04-23T10:19:47;99774.03;;;15.83;62.87
64053;BME280;50299;49.524;8.536;2023-04-23T10:22:15;99779.53;;;16.09;55.96
64053;BME280;50299;49.524;8.536;2023-04-23T10:24:51;99780.47;;;16.27;63.78
64053;BME280;50299;49.524;8.536;2023-04-23T10:27:21;99776.56;;;16.36;63.51
64053;BME280;50299;49.524;8.536;2023-04-23T10:29:53;99762.72;;;16.46;59.51
64053;BME280;50299;49.524;8.536;2023-04-23T10:32:20;99764.34;;;16.51;62.75
64053;BME280;50299;49.524;8.536;2023-04-23T10:34:50;99764.34;;;16.99;67.17
64053;BME280;50299;49.524;8.536;2023-04-23T10:37:17;99758.44;;;17.11;58.04
64053;BME280;50299;49.524;8.536;2023-04-23T10:39:48;99754.44;;;17.19;61.06
64053;BME280;50299;49.524;8.536;2023-04-23T10:42:16;99752.44;;;17.13;59.31
64053;BME280;50299;49.524;8.536;2023-04-23T10:44:43;99745.66;;;17.14;58.63
64053;BME280;50299;49.524;8.536;2023-04-23T10:47:28;99739.69;;;17.12;50.60
64053;BME280;50299;49.524;8.536;2023-04-23T10:49:56;99734.34;;;16.89;50.75
64053;BME280;50299;49.524;8.536;2023-04-23T10:52:22;99739.13;;;16.37;56.29
64053;BME280;50299;49.524;8.536;2023-04-23T10:54:56;99726.31;;;16.25;55.91
64053;BME280;50299;49.524;8.536;2023-04-23T10:57:25;99731.63;;;16.44;61.40
64053;BME280;50299;49.524;8.536;2023-04-23T10:59:54;99720.97;;;16.61;55.98
64053;BME280;50299;49.524;8.536;2023-04-23T11:02:23;99725.28;;;17.06;57.16
64053;BME280;50299;49.524;8.536;2023-04-23T11:04:55;99726.97;;;17.25;61.07
64053;BME280;50299;49.524;8.536;2023-04-23T11:07:31;99725.88;;;17.40;57.29
64053;BME280;50299;49.524;8.536;2023-04-23T11:09:59;99719.72;;;17.13;45.01
64053;BME280;50299;49.524;8.536;2023-04-23T11:14:56;99722.28;;;16.22;51.00
64053;BME280;50299;49.524;8.536;2023-04-23T11:22:34;99699.78;;;16.52;58.76
64053;BME280;50299;49.524;8.536;2023-04-23T11:25:02;99691.88;;;16.62;53.09
64053;BME280;50299;49.524;8.536;2023-04-23T11:27:29;99688.25;;;16.54;57.97
64053;BME280;50299;49.524;8.536;2023-04-23T11:29:59;99686.91;;;16.89;55.26
64053;BME280;50299;49.524;8.536;2023-04-23T11:32:26;99690.06;;;16.84;51.02
64053;BME280;50299;49.524;8.536;2023-04-23T11:34:54;99684.66;;;17.16;55.65
64053;BME280;50299;49.524;8.536;2023-04-23T11:37:20;99685.38;;;17.06;49.91
64053;BME280;50299;49.524;8.536;2023-04-23T11:39:46;99677.88;;;17.27;49.97
64053;BME280;50299;49.524;8.536;2023-04-23T11:42:15;99671.13;;;17.32;50.88
64053;BME280;50299;49.524;8.536;2023-04-23T11:44:45;99668.34;;;17.32;52.04
64053;BME280;50299;49.524;8.536;2023-04-23T11:47:14;99659.19;;;17.39;52.53
64053;BME280;50299;49.524;8.536;2023-04-23T11:49:44;99666.25;;;17.15;45.14
64053;BME280;50299;49.524;8.536;2023-04-23T11:52:13;99675.28;;;16.80;41.84
64053;BME280;50299;49.524;8.536;2023-04-23T11:54:40;99668.38;;;16.59;48.00
64053;BME280;50299;49.524;8.536;2023-04-23T11:57:07;99647.91;;;17.10;53.71
64053;BME280;50299;49.524;8.536;2023-04-23T11:59:34;99647.69;;;17.58;45.41
64053;BME280;50299;49.524;8.536;2023-04-23T12:02:00;99642.50;;;17.74;44.00
64053;BME280;50299;49.524;8.536;2023-04-23T12:04:28;99632.13;;;17.82;41.59
64053;BME280;50299;49.524;8.536;2023-04-23T12:06:56;99632.50;;;17.59;51.84
64053;BME280;50299;49.524;8.536;2023-04-23T12:09:50;99624.53;;;17.75;51.67
64053;BME280;50299;49.524;8.536;2023-04-23T12:12:17;99623.00;;;18.10;53.90
64053;BME280;50299;49.524;8.536;2023-04-23T12:14:44;99613.38;;;17.90;46.56
64053;BME280;50299;49.524;8.536;2023-04-23T12:17:17;99617.34;;;18.03;51.47
64053;BME280;50299;49.524;8.536;2023-04-23T12:19:47;99600.16;;;18.33;51.64
64053;BME280;50299;49.524;8.536;2023-04-23T12:22:16;99597.25;;;18.72;40.63
64053;BME280;50299;49.524;8.536;2023-04-23T12:24:47;99600.50;;;18.53;47.48
64053;BME280;50299;49.524;8.536;2023-04-23T12:27:15;99591.75;;;18.40;52.06
64053;BME280;50299;49.524;8.536;2023-04-23T12:29:42;99584.16;;;18.34;47.49
64053;BME280;50299;49.524;8.536;2023-04-23T12:32:10;99579.78;;;18.40;36.56
64053;BME280;50299;49.524;8.536;2023-04-23T12:34:52;99575.41;;;18.03;42.44
64053;BME280;50299;49.524;8.536;2023-04-23T12:37:23;99565.72;;;18.50;53.02
64053;BME280;50299;49.524;8.536;2023-04-23T12:39:51;99568.44;;;18.83;43.69
64053;BME280;50299;49.524;8.536;2023-04-23T12:42:21;99575.25;;;18.82;39.76
64053;BME280;50299;49.524;8.536;2023-04-23T12:44:48;99566.47;;;18.69;46.20
64053;BME280;50299;49.524;8.536;2023-04-23T12:47:16;99560.03;;;18.75;35.64
64053;BME280;50299;49.524;8.536;2023-04-23T12:49:50;99560.56;;;18.49;40.39
64053;BME280;50299;49.524;8.536;2023-04-23T12:52:19;99563.38;;;18.42;45.92
64053;BME280;50299;49.524;8.536;2023-04-23T12:54:46;99556.47;;;18.79;46.67
64053;BME280;50299;49.524;8.536;2023-04-23T12:57:14;99552.41;;;18.94;40.15
64053;BME280;50299;49.524;8.536;2023-04-23T12:59:41;99548.09;;;18.68;37.08
64053;BME280;50299;49.524;8.536;2023-04-23T13:02:10;99550.66;;;18.19;41.51
64053;BME280;50299;49.524;8.536;2023-04-23T13:04:37;99544.19;;;18.44;39.54
64053;BME280;50299;49.524;8.536;2023-04-23T13:07:03;99537.50;;;17.77;35.33
64053;BME280;50299;49.524;8.536;2023-04-23T13:09:30;99545.47;;;17.75;40.16
64053;BME280;50299;49.524;8.536;2023-04-23T13:11:56;99529.09;;;17.84;39.77
64053;BME280;50299;49.524;8.536;2023-04-23T13:14:25;99531.13;;;17.59;42.60
64053;BME280;50299;49.524;8.536;2023-04-23T13:16:52;99523.91;;;17.83;37.94
64053;BME280;50299;49.524;8.536;2023-04-23T13:19:19;99520.22;;;18.36;41.21